Time,TemperatureF,DewpointF,PressureIn,WindDirection,WindDirectionDegrees,WindSpeedMPH,WindSpeedGustMPH,Humidity,HourlyPrecipIn,Conditions,Clouds,dailyrainin,SoftwareType,DateUTC
2013-01-10 00:02:00,36.8,34.0,29.73,ENE,63,1.0,1.0,88,0.00,,,0.00,weatherlink.com 1.10,2013-01-10 00:02:00,
2013-01-10 00:18:00,38.0,35.0,29.72,NNW,344,1.0,3.0,87,0.00,,,0.00,weatherlink.com 1.10,2013-01-10 00:18:00,
2013-01-10 00:33:00,38.5,35.0,29.72,WSW,250,2.0,5.0,88,0.00,,,0.00,weatherlink.com 1.10,2013-01-10 00:33:00,
2013-01-10 00:48:00,39.5,35.0,29.71,SW,232,4.0,8.0,85,0.00,,,0.00,weatherlink.com 1.10,2013-01-10 00:48:00,
2013-01-10 01:03:00,39.6,35.0,29.71,SW,229,3.0,5.0,84,0.00,,,0.00,weatherlink.com 1.10,2013-01-10 01:03:00,
2013-01-10 01:18:00,39.8,35.0,29.71,SW,215,2.0,3.0,82,0.00,,,0.00,weatherlink.com 1.10,2013-01-10 01:18:00,
2013-01-10 01:33:00,39.4,35.0,29.70,South,172,2.0,6.0,84,0.00,,,0.00,weatherlink.com 1.10,2013-01-10 01:33:00,
2013-01-10 01:48:00,39.4,35.0,29.71,South,179,0.0,5.0,84,0.00,,,0.00,weatherlink.com 1.10,2013-01-10 01:48:00,
2013-01-10 02:03:00,36.8,32.0,29.70,NE,38,0.0,5.0,84,0.00,,,0.00,weatherlink.com 1.10,2013-01-10 02:03:00,
2013-01-10 02:18:00,36.0,33.0,29.71,NNE,30,0.0,1.0,87,0.00,,,0.00,weatherlink.com 1.10,2013-01-10 02:18:00,
2013-01-10 02:33:00,36.0,32.0,29.70,SSW,210,1.0,3.0,86,0.00,,,0.00,weatherlink.com 1.10,2013-01-10 02:33:00,
2013-01-10 02:48:00,35.7,33.0,29.69,South,176,0.0,0.0,88,0.00,,,0.00,weatherlink.com 1.10,2013-01-10 02:48:00,
2013-01-10 03:03:00,34.8,32.0,29.69,ESE,105,0.0,0.0,88,0.00,,,0.00,weatherlink.com 1.10,2013-01-10 03:03:00,
2013-01-10 03:18:00,34.0,31.0,29.68,SE,126,0.0,0.0,89,0.00,,,0.00,weatherlink.com 1.10,2013-01-10 03:18:00,
2013-01-10 03:33:00,33.5,31.0,29.68,South,184,0.0,1.0,90,0.00,,,0.00,weatherlink.com 1.10,2013-01-10 03:33:00,
2013-01-10 03:48:00,32.2,30.0,29.68,SW,229,2.0,2.0,91,0.00,,,0.00,weatherlink.com 1.10,2013-01-10 03:48:00,
2013-01-10 04:03:00,-999.0,-99.9,29.67,North,-999,-999.0,-999.0,-999,0.00,,,0.00,weatherlink.com 1.10,2013-01-10 04:03:00,
2013-01-10 04:19:00,-999.0,-99.9,29.66,North,-999,-999.0,-999.0,-999,0.00,,,0.00,weatherlink.com 1.10,2013-01-10 04:19:00,
2013-01-10 04:48:00,-999.0,-99.9,29.65,North,-999,-999.0,-999.0,-999,0.00,,,0.00,weatherlink.com 1.10,2013-01-10 04:48:00,
2013-01-10 05:03:00,-999.0,-99.9,29.64,North,-999,-999.0,-999.0,-999,0.00,,,0.00,weatherlink.com 1.10,2013-01-10 05:03:00,
2013-01-10 05:18:00,-999.0,-99.9,29.64,North,-999,-999.0,-999.0,-999,0.00,,,0.00,weatherlink.com 1.10,2013-01-10 05:18:00,
2013-01-10 05:49:00,-999.0,-99.9,29.64,North,-999,-999.0,-999.0,-999,0.00,,,0.00,weatherlink.com 1.10,2013-01-10 05:49:00,
2013-01-10 06:03:00,-999.0,-99.9,29.64,North,-999,-999.0,-999.0,-999,0.00,,,0.00,weatherlink.com 1.10,2013-01-10 06:03:00,
2013-01-10 06:18:00,-999.0,-99.9,29.63,North,-999,-999.0,-999.0,-999,0.00,,,0.00,weatherlink.com 1.10,2013-01-10 06:18:00,
2013-01-10 06:33:00,-999.0,-99.9,29.63,North,-999,-999.0,-999.0,-999,0.00,,,0.00,weatherlink.com 1.10,2013-01-10 06:33:00,
2013-01-10 06:48:00,-999.0,-99.9,29.62,North,-999,-999.0,-999.0,-999,0.00,,,0.00,weatherlink.com 1.10,2013-01-10 06:48:00,
2013-01-10 07:03:00,-999.0,-99.9,29.62,North,-999,-999.0,-999.0,-999,0.00,,,0.00,weatherlink.com 1.10,2013-01-10 07:03:00,
2013-01-10 07:18:00,-999.0,-99.9,29.63,North,-999,-999.0,-999.0,-999,0.00,,,0.00,weatherlink.com 1.10,2013-01-10 07:18:00,
2013-01-10 07:33:00,-999.0,-99.9,29.62,North,-999,-999.0,-999.0,-999,0.00,,,0.00,weatherlink.com 1.10,2013-01-10 07:33:00,
2013-01-10 07:49:00,-999.0,-99.9,29.62,North,-999,-999.0,-999.0,-999,0.00,,,0.00,weatherlink.com 1.10,2013-01-10 07:49:00,
2013-01-10 08:04:00,-999.0,-99.9,29.62,North,-999,-999.0,-999.0,-999,0.00,,,0.00,weatherlink.com 1.10,2013-01-10 08:04:00,
2013-01-10 08:19:00,-999.0,-99.9,29.62,North,-999,-999.0,-999.0,-999,0.00,,,0.00,weatherlink.com 1.10,2013-01-10 08:19:00,
2013-01-10 08:34:00,-999.0,-99.9,29.62,North,-999,-999.0,-999.0,-999,0.00,,,0.00,weatherlink.com 1.10,2013-01-10 08:34:00,
2013-01-10 08:49:00,-999.0,-99.9,29.62,North,-999,-999.0,-999.0,-999,0.00,,,0.00,weatherlink.com 1.10,2013-01-10 08:49:00,
2013-01-10 09:04:00,-999.0,-99.9,29.62,North,-999,-999.0,-999.0,-999,0.00,,,0.00,weatherlink.com 1.10,2013-01-10 09:04:00,
2013-01-10 09:19:00,-999.0,-99.9,29.62,North,-999,-999.0,-999.0,-999,0.00,,,0.00,weatherlink.com 1.10,2013-01-10 09:19:00,
2013-01-10 09:34:00,-999.0,-99.9,29.61,North,-999,-999.0,-999.0,-999,0.00,,,0.00,weatherlink.com 1.10,2013-01-10 09:34:00,
2013-01-10 09:49:00,-999.0,-99.9,29.61,North,-999,-999.0,-999.0,-999,0.00,,,0.00,weatherlink.com 1.10,2013-01-10 09:49:00,
2013-01-10 10:04:00,-999.0,-99.9,29.61,North,-999,-999.0,-999.0,-999,0.00,,,0.00,weatherlink.com 1.10,2013-01-10 10:04:00,
2013-01-10 10:19:00,-999.0,-99.9,29.61,North,-999,-999.0,-999.0,-999,0.00,,,0.00,weatherlink.com 1.10,2013-01-10 10:19:00,
2013-01-10 10:34:00,-999.0,-99.9,29.61,North,-999,-999.0,-999.0,-999,0.00,,,0.00,weatherlink.com 1.10,2013-01-10 10:34:00,
2013-01-10 11:04:00,-999.0,-99.9,29.61,North,-999,-999.0,-999.0,-999,0.00,,,0.00,weatherlink.com 1.10,2013-01-10 11:04:00,
2013-01-10 11:19:00,-999.0,-99.9,29.61,North,-999,-999.0,-999.0,-999,0.00,,,0.00,weatherlink.com 1.10,2013-01-10 11:19:00,
2013-01-10 11:34:00,-999.0,-99.9,29.61,North,-999,-999.0,-999.0,-999,0.00,,,0.00,weatherlink.com 1.10,2013-01-10 11:34:00,
2013-01-10 11:50:00,47.5,44.0,29.61,ESE,112,1.0,2.0,88,0.01,,,0.01,weatherlink.com 1.10,2013-01-10 11:50:00,
2013-01-10 12:05:00,43.0,40.0,29.60,SE,145,1.0,2.0,90,0.02,,,0.02,weatherlink.com 1.10,2013-01-10 12:05:00,
2013-01-10 12:20:00,57.7,54.0,29.60,ESE,108,1.0,3.0,88,0.02,,,0.02,weatherlink.com 1.10,2013-01-10 12:20:00,
2013-01-10 12:35:00,51.6,43.0,29.60,NE,44,2.0,2.0,72,0.02,,,0.02,weatherlink.com 1.10,2013-01-10 12:35:00,
2013-01-10 12:50:00,47.4,44.0,29.60,NNE,30,2.0,3.0,88,0.02,,,0.02,weatherlink.com 1.10,2013-01-10 12:50:00,
2013-01-10 13:05:00,43.7,42.0,29.60,North,351,1.0,2.0,92,0.01,,,0.02,weatherlink.com 1.10,2013-01-10 13:05:00,
2013-01-10 13:20:00,43.6,42.0,29.60,NNW,330,3.0,5.0,93,0.02,,,0.03,weatherlink.com 1.10,2013-01-10 13:20:00,
2013-01-10 13:35:00,44.0,42.0,29.59,NW,314,3.0,5.0,94,0.02,,,0.04,weatherlink.com 1.10,2013-01-10 13:35:00,
2013-01-10 13:50:00,44.8,43.0,29.60,NW,304,5.0,7.0,93,0.02,,,0.04,weatherlink.com 1.10,2013-01-10 13:50:00,
2013-01-10 14:05:00,45.3,43.0,29.60,North,354,5.0,14.0,91,0.02,,,0.04,weatherlink.com 1.10,2013-01-10 14:05:00,
2013-01-10 14:20:00,45.4,43.0,29.60,NNW,335,5.0,10.0,90,0.01,,,0.04,weatherlink.com 1.10,2013-01-10 14:20:00,
2013-01-10 14:35:00,45.3,43.0,29.61,NNW,345,4.0,10.0,91,0.00,,,0.04,weatherlink.com 1.10,2013-01-10 14:35:00,
2013-01-10 14:50:00,45.0,43.0,29.61,NNW,335,4.0,8.0,92,0.00,,,0.04,weatherlink.com 1.10,2013-01-10 14:50:00,
2013-01-10 15:05:00,45.1,43.0,29.61,NW,314,4.0,14.0,91,0.00,,,0.04,weatherlink.com 1.10,2013-01-10 15:05:00,
2013-01-10 15:20:00,45.0,42.0,29.61,NW,305,7.0,10.0,90,0.00,,,0.04,weatherlink.com 1.10,2013-01-10 15:20:00,
2013-01-10 15:35:00,44.9,42.0,29.62,NE,49,3.0,14.0,90,0.00,,,0.04,weatherlink.com 1.10,2013-01-10 15:35:00,
2013-01-10 15:50:00,44.6,42.0,29.62,NW,320,6.0,11.0,91,0.00,,,0.04,weatherlink.com 1.10,2013-01-10 15:50:00,
2013-01-10 16:05:00,44.6,41.0,29.62,NW,305,6.0,10.0,88,0.00,,,0.04,weatherlink.com 1.10,2013-01-10 16:05:00,
2013-01-10 16:20:00,44.9,41.0,29.62,NNW,333,5.0,11.0,86,0.00,,,0.04,weatherlink.com 1.10,2013-01-10 16:20:00,
2013-01-10 16:35:00,44.8,41.0,29.63,NNW,333,3.0,9.0,86,0.00,,,0.04,weatherlink.com 1.10,2013-01-10 16:35:00,
2013-01-10 16:50:00,45.1,41.0,29.63,WNW,289,9.0,15.0,84,0.00,,,0.04,weatherlink.com 1.10,2013-01-10 16:50:00,
2013-01-10 17:05:00,44.8,41.0,29.64,WNW,294,3.0,13.0,85,0.00,,,0.04,weatherlink.com 1.10,2013-01-10 17:05:00,
2013-01-10 17:20:00,44.5,40.0,29.64,SW,215,3.0,12.0,85,0.00,,,0.04,weatherlink.com 1.10,2013-01-10 17:20:00,
2013-01-10 17:35:00,44.2,39.0,29.64,WNW,293,6.0,14.0,83,0.00,,,0.04,weatherlink.com 1.10,2013-01-10 17:35:00,
2013-01-10 17:50:00,42.9,38.0,29.64,NW,314,8.0,13.0,83,0.00,,,0.04,weatherlink.com 1.10,2013-01-10 17:50:00,
2013-01-10 18:05:00,-999.0,-99.9,29.65,North,-999,-999.0,-999.0,-999,0.00,,,0.04,weatherlink.com 1.10,2013-01-10 18:05:00,
2013-01-10 18:20:00,-999.0,-99.9,29.65,North,-999,-999.0,-999.0,-999,0.00,,,0.04,weatherlink.com 1.10,2013-01-10 18:20:00,
2013-01-10 18:35:00,-999.0,-99.9,29.65,North,-999,-999.0,-999.0,-999,0.00,,,0.04,weatherlink.com 1.10,2013-01-10 18:35:00,
2013-01-10 18:50:00,-999.0,-99.9,29.65,North,-999,-999.0,-999.0,-999,0.00,,,0.00,weatherlink.com 1.10,2013-01-10 18:50:00,
2013-01-10 19:05:00,-999.0,-99.9,29.65,North,-999,-999.0,-999.0,-999,0.00,,,0.00,weatherlink.com 1.10,2013-01-10 19:05:00,
2013-01-10 19:20:00,-999.0,-99.9,29.66,North,-999,-999.0,-999.0,-999,0.00,,,0.00,weatherlink.com 1.10,2013-01-10 19:20:00,
2013-01-10 19:35:00,-999.0,-99.9,29.66,North,-999,-999.0,-999.0,-999,0.00,,,0.00,weatherlink.com 1.10,2013-01-10 19:35:00,
2013-01-10 19:51:00,-999.0,-99.9,29.67,North,-999,-999.0,-999.0,-999,0.00,,,0.00,weatherlink.com 1.10,2013-01-10 19:51:00,
2013-01-10 20:06:00,-999.0,-99.9,29.67,North,-999,-999.0,-999.0,-999,0.00,,,0.00,weatherlink.com 1.10,2013-01-10 20:06:00,
2013-01-10 20:21:00,-999.0,-99.9,29.67,North,-999,-999.0,-999.0,-999,0.00,,,0.00,weatherlink.com 1.10,2013-01-10 20:21:00,
2013-01-10 20:36:00,-999.0,-99.9,29.68,North,-999,-999.0,-999.0,-999,0.00,,,0.00,weatherlink.com 1.10,2013-01-10 20:36:00,
2013-01-10 20:51:00,-999.0,-99.9,29.69,North,-999,-999.0,-999.0,-999,0.00,,,0.00,weatherlink.com 1.10,2013-01-10 20:51:00,
2013-01-10 21:06:00,-999.0,-99.9,29.69,North,-999,-999.0,-999.0,-999,0.00,,,0.00,weatherlink.com 1.10,2013-01-10 21:06:00,
2013-01-10 21:21:00,-999.0,-99.9,29.70,North,-999,-999.0,-999.0,-999,0.00,,,0.00,weatherlink.com 1.10,2013-01-10 21:21:00,
2013-01-10 21:36:00,-999.0,-99.9,29.70,North,-999,-999.0,-999.0,-999,0.00,,,0.00,weatherlink.com 1.10,2013-01-10 21:36:00,
2013-01-10 21:51:00,-999.0,-99.9,29.70,North,-999,-999.0,-999.0,-999,0.00,,,0.00,weatherlink.com 1.10,2013-01-10 21:51:00,
2013-01-10 22:06:00,-999.0,-99.9,29.71,North,-999,-999.0,-999.0,-999,0.00,,,0.00,weatherlink.com 1.10,2013-01-10 22:06:00,
2013-01-10 22:21:00,-999.0,-99.9,29.71,North,-999,-999.0,-999.0,-999,0.00,,,0.00,weatherlink.com 1.10,2013-01-10 22:21:00,
2013-01-10 22:36:00,-999.0,-99.9,29.71,North,-999,-999.0,-999.0,-999,0.00,,,0.00,weatherlink.com 1.10,2013-01-10 22:36:00,
2013-01-10 22:51:00,-999.0,-99.9,29.71,North,-999,-999.0,-999.0,-999,0.00,,,0.00,weatherlink.com 1.10,2013-01-10 22:51:00,
2013-01-10 23:22:00,-999.0,-99.9,29.71,North,-999,-999.0,-999.0,-999,0.00,,,0.00,weatherlink.com 1.10,2013-01-10 23:22:00,
2013-01-10 23:37:00,-999.0,-99.9,29.71,North,-999,-999.0,-999.0,-999,0.00,,,0.00,weatherlink.com 1.10,2013-01-10 23:37:00,
2013-01-10 23:52:00,-999.0,-99.9,29.72,North,-999,-999.0,-999.0,-999,0.00,,,0.00,weatherlink.com 1.10,2013-01-10 23:52:00,